CZ-0137 weather

Radovesice Airfield
Ústí nad Labem Region, Czechia

Public forecast

Using degrees Celsius for public forecast. Weather courtesy of forecast.io.

METAR (pilot weather report)

Report is more than 6 hours old.

Closest report is Vodochody Airport, 16.6 nm (30.8 km) SE. Retrieved 2019/03/21 16:00 UTC (8 hours ago):

LKVO 211600Z 10003KT 060V170 CAVOK 14/02 Q1032

TAF (pilot weather forecast)

Forecast is more than 6 hours old.

Closest forecast is Václav Havel Airport Prague, 19.7 nm (36.5 km) SSE. Retrieved 2019/03/21 18:06 UTC (6 hours ago):

TAF LKPR 211700Z 2118/2300 VRB02KT CAVOK BECMG 2210/2213 07007KT